createdAt,value
2022-12-31T00:02:00.425Z,99981.31
2022-12-31T00:07:02.193Z,99996.56
2022-12-31T00:12:04.005Z,99996.56
2022-12-31T00:17:05.797Z,99999.13
2022-12-31T00:22:07.607Z,100002.06
2022-12-31T00:27:09.284Z,100018.34
2022-12-31T00:32:11.160Z,100023.84
2022-12-31T00:37:12.917Z,100033.94
2022-12-31T00:42:14.657Z,100021.44
2022-12-31T00:47:16.368Z,100019.53
2022-12-31T00:52:18.445Z,100022.50
2022-12-31T00:57:20.136Z,100019.53
2022-12-31T01:02:22.033Z,100016.59
2022-12-31T01:07:23.881Z,100024.19
2022-12-31T01:12:25.786Z,100018.69
2022-12-31T01:17:27.792Z,100020.59
2022-12-31T01:22:29.526Z,100011.91
2022-12-31T01:27:31.297Z,100020.75
2022-12-31T01:32:33.054Z,100035.97
2022-12-31T01:37:34.821Z,100013.09
2022-12-31T01:42:36.774Z,100003.16
2022-12-31T01:47:43.775Z,100013.50
2022-12-31T01:52:49.362Z,100004.84
2022-12-31T01:57:55.706Z,99997.38
2022-12-31T02:02:57.681Z,99999.75
2022-12-31T02:07:59.724Z,100006.75
2022-12-31T02:13:02.193Z,100030.47
2022-12-31T02:18:16.410Z,100034.72
2022-12-31T02:24:00.666Z,100035.56
2022-12-31T02:29:15.097Z,100025.63
2022-12-31T02:34:32.683Z,100036.00
2022-12-31T02:39:35.383Z,100015.44
2022-12-31T02:44:38.545Z,100026.25
2022-12-31T02:50:06.982Z,100027.72
2022-12-31T02:55:18.892Z,100027.63
2022-12-31T03:00:39.748Z,100045.59
2022-12-31T03:05:44.445Z,100042.13
2022-12-31T03:10:46.104Z,100053.34
2022-12-31T03:15:47.881Z,100055.84
2022-12-31T03:21:09.721Z,100049.03
2022-12-31T03:26:13.148Z,100045.63
2022-12-31T03:31:16.229Z,100046.63
2022-12-31T03:36:18.008Z,100045.50
2022-12-31T03:41:19.835Z,100029.94
2022-12-31T03:46:21.654Z,100018.53
2022-12-31T03:51:23.336Z,100020.63
2022-12-31T03:56:25.004Z,100026.97
2022-12-31T04:01:27.588Z,100007.13
2022-12-31T04:06:29.425Z,100019.84
2022-12-31T04:11:31.988Z,100014.34
2022-12-31T04:16:33.792Z,100019.97
2022-12-31T04:21:35.631Z,100020.16
2022-12-31T04:26:38.429Z,100017.59
2022-12-31T04:31:40.206Z,100008.41
2022-12-31T04:36:42.086Z,100027.88
2022-12-31T04:41:43.734Z,100026.09
2022-12-31T04:46:45.727Z,100033.75
2022-12-31T04:51:47.342Z,100025.97
2022-12-31T04:56:49.084Z,100035.91
2022-12-31T05:01:50.848Z,100013.53
2022-12-31T05:06:52.616Z,100029.84
2022-12-31T05:11:54.329Z,100021.38
2022-12-31T05:16:56.041Z,100040.88
2022-12-31T05:22:15.972Z,100035.75
2022-12-31T05:27:17.632Z,100035.38
2022-12-31T05:32:19.518Z,100031.63
2022-12-31T05:37:21.184Z,100031.41
2022-12-31T05:42:23.313Z,100034.78
2022-12-31T05:47:25.486Z,100022.59
2022-12-31T05:52:27.266Z,100022.78
2022-12-31T05:57:29.162Z,100027.44
2022-12-31T06:02:30.835Z,100030.59
2022-12-31T06:07:32.864Z,100016.88
2022-12-31T06:12:35.495Z,100025.31
2022-12-31T06:17:37.237Z,100033.00
2022-12-31T06:22:38.905Z,100039.34
2022-12-31T06:27:40.640Z,100048.06
2022-12-31T06:32:42.377Z,100033.34
2022-12-31T06:37:44.247Z,100025.31
2022-12-31T06:42:46.102Z,100034.09
2022-12-31T06:47:47.774Z,100025.31
2022-12-31T06:52:51.097Z,100027.50
2022-12-31T06:57:53.171Z,100014.09
2022-12-31T07:03:34.715Z,100019.72
2022-12-31T07:08:56.248Z,100025.94
2022-12-31T07:14:23.789Z,100021.75
2022-12-31T07:19:42.285Z,100006.94
2022-12-31T07:24:44.715Z,100009.69
2022-12-31T07:30:04.465Z,100024.75
2022-12-31T07:35:35.083Z,100030.44
2022-12-31T07:40:54.187Z,100040.00
2022-12-31T07:46:13.331Z,100020.97
2022-12-31T07:51:15.449Z,100021.00
2022-12-31T07:56:17.233Z,100012.97
2022-12-31T08:01:35.916Z,100026.13
2022-12-31T08:07:22.551Z,100039.06
2022-12-31T08:12:27.997Z,100034.38
2022-12-31T08:17:29.867Z,100048.59
2022-12-31T08:22:53.029Z,100045.84
2022-12-31T08:28:13.391Z,100048.59
2022-12-31T08:33:24.789Z,100079.94
2022-12-31T08:38:43.499Z,100079.75
2022-12-31T08:43:59.213Z,100069.56
2022-12-31T08:49:01.191Z,100070.41
2022-12-31T08:54:03.215Z,100092.00
2022-12-31T08:59:20.181Z,100094.56
2022-12-31T09:04:29.278Z,100116.47
2022-12-31T09:10:03.252Z,100138.56
2022-12-31T09:15:08.405Z,100141.34
2022-12-31T09:20:16.526Z,100130.13
2022-12-31T09:25:21.534Z,100174.03
2022-12-31T09:30:23.691Z,100153.03
2022-12-31T09:35:45.352Z,100162.13
2022-12-31T09:41:04.956Z,100150.88
2022-12-31T09:46:21.673Z,100178.25
2022-12-31T09:51:56.853Z,100164.75
2022-12-31T09:57:25.282Z,100164.13
2022-12-31T10:03:04.637Z,100211.56
2022-12-31T10:08:34.915Z,100237.19
2022-12-31T10:14:12.162Z,100201.00
